sensor_id;sensor_type;location;lat;lon;timestamp;temperature;humidity
66190;DHT22;52992;52.084;5.412;2022-09-12T00:01:13;20.10;57.70
66190;DHT22;52992;52.084;5.412;2022-09-12T00:03:40;20.10;57.70
66190;DHT22;52992;52.084;5.412;2022-09-12T00:06:15;20.10;58.40
66190;DHT22;52992;52.084;5.412;2022-09-12T00:08:48;20.00;57.50
66190;DHT22;52992;52.084;5.412;2022-09-12T00:11:15;20.00;57.40
66190;DHT22;52992;52.084;5.412;2022-09-12T00:13:42;20.00;57.30
66190;DHT22;52992;52.084;5.412;2022-09-12T00:16:20;19.90;57.60
66190;DHT22;52992;52.084;5.412;2022-09-12T00:18:48;19.90;57.80
66190;DHT22;52992;52.084;5.412;2022-09-12T00:21:16;19.90;57.60
66190;DHT22;52992;52.084;5.412;2022-09-12T00:23:44;19.80;57.80
66190;DHT22;52992;52.084;5.412;2022-09-12T00:26:12;19.80;58.00
66190;DHT22;52992;52.084;5.412;2022-09-12T00:28:40;19.80;58.10
66190;DHT22;52992;52.084;5.412;2022-09-12T00:31:11;19.80;57.60
66190;DHT22;52992;52.084;5.412;2022-09-12T00:33:38;19.80;57.60
66190;DHT22;52992;52.084;5.412;2022-09-12T00:36:08;19.80;57.60
66190;DHT22;52992;52.084;5.412;2022-09-12T00:38:36;19.80;57.90
66190;DHT22;52992;52.084;5.412;2022-09-12T00:41:04;19.80;57.90
66190;DHT22;52992;52.084;5.412;2022-09-12T00:43:40;19.70;57.90
66190;DHT22;52992;52.084;5.412;2022-09-12T00:48:55;19.70;57.60
66190;DHT22;52992;52.084;5.412;2022-09-12T00:51:22;19.70;57.60
66190;DHT22;52992;52.084;5.412;2022-09-12T00:53:50;19.70;57.60
66190;DHT22;52992;52.084;5.412;2022-09-12T00:56:19;19.70;57.70
66190;DHT22;52992;52.084;5.412;2022-09-12T00:59:05;19.70;57.60
66190;DHT22;52992;52.084;5.412;2022-09-12T01:01:34;19.60;57.50
66190;DHT22;52992;52.084;5.412;2022-09-12T01:04:02;19.60;57.50
66190;DHT22;52992;52.084;5.412;2022-09-12T01:06:38;19.60;57.60
66190;DHT22;52992;52.084;5.412;2022-09-12T01:09:06;19.60;57.50
66190;DHT22;52992;52.084;5.412;2022-09-12T01:11:36;19.60;57.30
66190;DHT22;52992;52.084;5.412;2022-09-12T01:14:05;19.60;57.20
66190;DHT22;52992;52.084;5.412;2022-09-12T01:16:34;19.50;57.20
66190;DHT22;52992;52.084;5.412;2022-09-12T01:24:52;19.50;57.20
66190;DHT22;52992;52.084;5.412;2022-09-12T01:30:30;19.50;57.30
66190;DHT22;52992;52.084;5.412;2022-09-12T01:38:54;19.30;57.00
66190;DHT22;52992;52.084;5.412;2022-09-12T01:46:44;19.20;57.10
66190;DHT22;52992;52.084;5.412;2022-09-12T01:49:26;19.20;57.00
66190;DHT22;52992;52.084;5.412;2022-09-12T01:52:04;19.20;57.20
66190;DHT22;52992;52.084;5.412;2022-09-12T01:54:42;19.10;57.30
66190;DHT22;52992;52.084;5.412;2022-09-12T01:57:22;19.10;57.30
66190;DHT22;52992;52.084;5.412;2022-09-12T01:59:56;19.10;57.30
66190;DHT22;52992;52.084;5.412;2022-09-12T02:02:34;19.10;57.40
66190;DHT22;52992;52.084;5.412;2022-09-12T02:05:04;19.10;57.50
66190;DHT22;52992;52.084;5.412;2022-09-12T02:07:41;19.00;57.40
66190;DHT22;52992;52.084;5.412;2022-09-12T02:10:22;19.00;57.40
66190;DHT22;52992;52.084;5.412;2022-09-12T02:15:42;19.00;57.40
66190;DHT22;52992;52.084;5.412;2022-09-12T02:18:13;19.00;57.50
66190;DHT22;52992;52.084;5.412;2022-09-12T02:20:42;19.00;57.50
66190;DHT22;52992;52.084;5.412;2022-09-12T02:23:22;19.00;57.60
66190;DHT22;52992;52.084;5.412;2022-09-12T02:25:52;19.00;57.50
66190;DHT22;52992;52.084;5.412;2022-09-12T02:28:41;19.00;57.50
66190;DHT22;52992;52.084;5.412;2022-09-12T02:31:44;18.90;57.60
66190;DHT22;52992;52.084;5.412;2022-09-12T02:39:37;18.90;57.50
66190;DHT22;52992;52.084;5.412;2022-09-12T02:42:08;18.90;57.30
66190;DHT22;52992;52.084;5.412;2022-09-12T02:44:35;18.90;57.00
66190;DHT22;52992;52.084;5.412;2022-09-12T02:47:14;18.90;57.00
66190;DHT22;52992;52.084;5.412;2022-09-12T02:49:42;18.80;58.00
66190;DHT22;52992;52.084;5.412;2022-09-12T02:52:09;18.90;57.60
66190;DHT22;52992;52.084;5.412;2022-09-12T02:54:36;18.80;57.60
66190;DHT22;52992;52.084;5.412;2022-09-12T02:57:14;18.90;57.60
66190;DHT22;52992;52.084;5.412;2022-09-12T02:59:49;18.90;57.60
66190;DHT22;52992;52.084;5.412;2022-09-12T03:02:25;18.90;57.50
66190;DHT22;52992;52.084;5.412;2022-09-12T03:15:40;18.70;57.40
66190;DHT22;52992;52.084;5.412;2022-09-12T03:18:40;18.70;57.40
66190;DHT22;52992;52.084;5.412;2022-09-12T03:21:36;18.70;57.50
66190;DHT22;52992;52.084;5.412;2022-09-12T03:24:20;18.60;57.10
66190;DHT22;52992;52.084;5.412;2022-09-12T03:27:14;18.70;57.10
66190;DHT22;52992;52.084;5.412;2022-09-12T03:29:43;18.70;57.30
66190;DHT22;52992;52.084;5.412;2022-09-12T03:32:11;18.60;57.10
66190;DHT22;52992;52.084;5.412;2022-09-12T03:34:38;18.60;57.00
66190;DHT22;52992;52.084;5.412;2022-09-12T03:37:05;18.60;56.80
66190;DHT22;52992;52.084;5.412;2022-09-12T03:39:33;18.60;56.80
66190;DHT22;52992;52.084;5.412;2022-09-12T03:41:59;18.70;57.20
66190;DHT22;52992;52.084;5.412;2022-09-12T03:44:26;18.60;57.10
66190;DHT22;52992;52.084;5.412;2022-09-12T03:46:53;18.60;57.30
66190;DHT22;52992;52.084;5.412;2022-09-12T03:49:20;18.60;57.30
66190;DHT22;52992;52.084;5.412;2022-09-12T03:51:46;18.60;57.30
66190;DHT22;52992;52.084;5.412;2022-09-12T03:54:13;18.60;57.10
66190;DHT22;52992;52.084;5.412;2022-09-12T03:56:40;18.60;56.90
66190;DHT22;52992;52.084;5.412;2022-09-12T03:59:07;18.50;56.80
66190;DHT22;52992;52.084;5.412;2022-09-12T04:01:34;18.50;56.80
66190;DHT22;52992;52.084;5.412;2022-09-12T04:04:01;18.50;57.00
66190;DHT22;52992;52.084;5.412;2022-09-12T04:06:28;18.40;57.10
66190;DHT22;52992;52.084;5.412;2022-09-12T04:08:55;18.40;57.20
66190;DHT22;52992;52.084;5.412;2022-09-12T04:11:22;18.40;57.30
66190;DHT22;52992;52.084;5.412;2022-09-12T04:13:49;18.40;57.50
66190;DHT22;52992;52.084;5.412;2022-09-12T04:16:17;18.40;57.70
66190;DHT22;52992;52.084;5.412;2022-09-12T04:18:44;18.40;57.50
66190;DHT22;52992;52.084;5.412;2022-09-12T04:21:15;18.40;57.60
66190;DHT22;52992;52.084;5.412;2022-09-12T04:23:42;18.40;57.80
66190;DHT22;52992;52.084;5.412;2022-09-12T04:26:10;18.40;58.00
66190;DHT22;52992;52.084;5.412;2022-09-12T04:28:39;18.40;58.00
66190;DHT22;52992;52.084;5.412;2022-09-12T04:31:09;18.40;58.00
66190;DHT22;52992;52.084;5.412;2022-09-12T04:33:36;18.40;57.90
66190;DHT22;52992;52.084;5.412;2022-09-12T04:36:05;18.40;57.70
66190;DHT22;52992;52.084;5.412;2022-09-12T04:38:34;18.40;57.40
66190;DHT22;52992;52.084;5.412;2022-09-12T04:41:10;18.40;57.30
66190;DHT22;52992;52.084;5.412;2022-09-12T04:43:37;18.40;57.40
66190;DHT22;52992;52.084;5.412;2022-09-12T04:46:08;18.50;57.60
66190;DHT22;52992;52.084;5.412;2022-09-12T04:48:36;18.40;57.40
66190;DHT22;52992;52.084;5.412;2022-09-12T04:53:37;18.40;57.60
66190;DHT22;52992;52.084;5.412;2022-09-12T04:56:06;18.40;57.50
66190;DHT22;52992;52.084;5.412;2022-09-12T04:58:34;18.40;57.60
66190;DHT22;52992;52.084;5.412;2022-09-12T05:01:13;18.40;57.60
66190;DHT22;52992;52.084;5.412;2022-09-12T05:03:41;18.50;57.70
66190;DHT22;52992;52.084;5.412;2022-09-12T05:06:18;18.50;57.40
66190;DHT22;52992;52.084;5.412;2022-09-12T05:08:46;18.50;57.30
66190;DHT22;52992;52.084;5.412;2022-09-12T05:11:19;18.50;57.40
66190;DHT22;52992;52.084;5.412;2022-09-12T05:13:52;18.50;57.40
66190;DHT22;52992;52.084;5.412;2022-09-12T05:16:20;18.50;57.50
66190;DHT22;52992;52.084;5.412;2022-09-12T05:18:47;18.60;57.70
66190;DHT22;52992;52.084;5.412;2022-09-12T05:21:17;18.60;57.80
66190;DHT22;52992;52.084;5.412;2022-09-12T05:23:44;18.60;57.90
66190;DHT22;52992;52.084;5.412;2022-09-12T05:26:15;18.50;58.00
66190;DHT22;52992;52.084;5.412;2022-09-12T05:28:42;18.50;58.10
66190;DHT22;52992;52.084;5.412;2022-09-12T05:31:24;18.60;58.00
66190;DHT22;52992;52.084;5.412;2022-09-12T05:33:52;18.60;57.90
66190;DHT22;52992;52.084;5.412;2022-09-12T05:36:25;18.60;57.70
66190;DHT22;52992;52.084;5.412;2022-09-12T05:38:52;18.70;57.80
66190;DHT22;52992;52.084;5.412;2022-09-12T05:41:24;18.70;57.80
66190;DHT22;52992;52.084;5.412;2022-09-12T05:43:53;18.70;57.70
66190;DHT22;52992;52.084;5.412;2022-09-12T05:46:23;18.70;57.70
66190;DHT22;52992;52.084;5.412;2022-09-12T05:48:51;18.70;58.00
66190;DHT22;52992;52.084;5.412;2022-09-12T05:51:27;18.70;58.10
66190;DHT22;52992;52.084;5.412;2022-09-12T05:53:56;18.80;58.20
66190;DHT22;52992;52.084;5.412;2022-09-12T05:56:26;18.80;58.20
66190;DHT22;52992;52.084;5.412;2022-09-12T05:58:55;18.80;58.20
66190;DHT22;52992;52.084;5.412;2022-09-12T06:01:23;18.80;58.30
66190;DHT22;52992;52.084;5.412;2022-09-12T06:03:53;18.80;58.30
66190;DHT22;52992;52.084;5.412;2022-09-12T06:06:21;18.80;58.40
66190;DHT22;52992;52.084;5.412;2022-09-12T06:08:50;18.80;58.50
66190;DHT22;52992;52.084;5.412;2022-09-12T06:11:22;18.80;58.60
66190;DHT22;52992;52.084;5.412;2022-09-12T06:13:51;18.90;58.90
66190;DHT22;52992;52.084;5.412;2022-09-12T06:16:20;18.80;58.80
66190;DHT22;52992;52.084;5.412;2022-09-12T06:18:50;18.90;59.10
66190;DHT22;52992;52.084;5.412;2022-09-12T06:21:17;18.90;59.20
66190;DHT22;52992;52.084;5.412;2022-09-12T06:23:44;18.90;60.10
66190;DHT22;52992;52.084;5.412;2022-09-12T06:26:12;19.00;59.40
66190;DHT22;52992;52.084;5.412;2022-09-12T06:28:40;19.00;59.50
66190;DHT22;52992;52.084;5.412;2022-09-12T06:31:11;19.10;59.70
66190;DHT22;52992;52.084;5.412;2022-09-12T06:33:40;19.10;59.80
66190;DHT22;52992;52.084;5.412;2022-09-12T06:36:10;19.10;59.70
66190;DHT22;52992;52.084;5.412;2022-09-12T06:38:39;19.10;59.70
66190;DHT22;52992;52.084;5.412;2022-09-12T06:41:08;19.20;59.70
66190;DHT22;52992;52.084;5.412;2022-09-12T06:43:35;19.20;59.70
66190;DHT22;52992;52.084;5.412;2022-09-12T06:46:02;19.30;59.70
66190;DHT22;52992;52.084;5.412;2022-09-12T06:48:29;19.40;60.40
66190;DHT22;52992;52.084;5.412;2022-09-12T06:51:05;19.50;59.60
66190;DHT22;52992;52.084;5.412;2022-09-12T06:53:35;19.50;59.50
66190;DHT22;52992;52.084;5.412;2022-09-12T06:56:05;19.60;59.40
66190;DHT22;52992;52.084;5.412;2022-09-12T06:58:35;19.70;59.30
66190;DHT22;52992;52.084;5.412;2022-09-12T07:01:05;19.80;59.20
66190;DHT22;52992;52.084;5.412;2022-09-12T07:03:32;19.90;59.10
66190;DHT22;52992;52.084;5.412;2022-09-12T07:06:07;20.00;58.90
66190;DHT22;52992;52.084;5.412;2022-09-12T07:08:34;20.20;59.10
66190;DHT22;52992;52.084;5.412;2022-09-12T07:13:45;20.60;58.90
66190;DHT22;52992;52.084;5.412;2022-09-12T07:16:13;20.80;58.50
66190;DHT22;52992;52.084;5.412;2022-09-12T07:18:50;21.00;58.60
66190;DHT22;52992;52.084;5.412;2022-09-12T07:21:17;21.20;58.20
66190;DHT22;52992;52.084;5.412;2022-09-12T07:23:44;21.40;57.70
66190;DHT22;52992;52.084;5.412;2022-09-12T07:26:12;21.50;57.70
66190;DHT22;52992;52.084;5.412;2022-09-12T07:28:41;21.60;57.10
66190;DHT22;52992;52.084;5.412;2022-09-12T07:31:15;21.60;57.30
66190;DHT22;52992;52.084;5.412;2022-09-12T07:33:43;21.60;57.50
66190;DHT22;52992;52.084;5.412;2022-09-12T07:36:15;21.80;57.40
66190;DHT22;52992;52.084;5.412;2022-09-12T07:38:42;22.30;55.90
66190;DHT22;52992;52.084;5.412;2022-09-12T07:41:21;22.80;55.00
66190;DHT22;52992;52.084;5.412;2022-09-12T07:43:53;23.00;53.90
66190;DHT22;52992;52.084;5.412;2022-09-12T07:46:20;23.10;53.80
66190;DHT22;52992;52.084;5.412;2022-09-12T07:49:06;23.00;54.60
66190;DHT22;52992;52.084;5.412;2022-09-12T07:51:34;22.90;55.40
66190;DHT22;52992;52.084;5.412;2022-09-12T07:54:01;22.80;56.30
66190;DHT22;52992;52.084;5.412;2022-09-12T07:56:29;22.80;57.00
66190;DHT22;52992;52.084;5.412;2022-09-12T07:59:01;22.80;57.00
66190;DHT22;52992;52.084;5.412;2022-09-12T08:01:28;22.80;56.90
66190;DHT22;52992;52.084;5.412;2022-09-12T08:03:57;22.80;56.80
66190;DHT22;52992;52.084;5.412;2022-09-12T08:06:26;22.70;57.30
66190;DHT22;52992;52.084;5.412;2022-09-12T08:08:55;22.70;57.20
66190;DHT22;52992;52.084;5.412;2022-09-12T08:11:23;22.80;57.50
66190;DHT22;52992;52.084;5.412;2022-09-12T08:13:51;22.80;58.20
66190;DHT22;52992;52.084;5.412;2022-09-12T08:16:26;22.90;57.90
66190;DHT22;52992;52.084;5.412;2022-09-12T08:18:54;23.00;58.60
66190;DHT22;52992;52.084;5.412;2022-09-12T08:21:23;23.10;58.90
66190;DHT22;52992;52.084;5.412;2022-09-12T08:23:55;23.20;59.30
66190;DHT22;52992;52.084;5.412;2022-09-12T08:26:22;23.40;58.40
66190;DHT22;52992;52.084;5.412;2022-09-12T08:28:50;23.40;57.30
66190;DHT22;52992;52.084;5.412;2022-09-12T08:31:18;23.50;57.20
66190;DHT22;52992;52.084;5.412;2022-09-12T08:33:46;23.50;57.00
66190;DHT22;52992;52.084;5.412;2022-09-12T08:36:18;23.60;57.60
66190;DHT22;52992;52.084;5.412;2022-09-12T08:38:49;23.70;60.60
66190;DHT22;52992;52.084;5.412;2022-09-12T08:55:05;24.90;59.10
66190;DHT22;52992;52.084;5.412;2022-09-12T08:57:36;24.90;57.80
66190;DHT22;52992;52.084;5.412;2022-09-12T09:00:05;25.00;57.70
66190;DHT22;52992;52.084;5.412;2022-09-12T09:03:08;25.00;56.80
66190;DHT22;52992;52.084;5.412;2022-09-12T09:05:49;25.00;55.60
66190;DHT22;52992;52.084;5.412;2022-09-12T09:16:48;25.60;58.30
66190;DHT22;52992;52.084;5.412;2022-09-12T09:19:27;25.70;57.10
66190;DHT22;52992;52.084;5.412;2022-09-12T09:24:53;25.90;57.10
66190;DHT22;52992;52.084;5.412;2022-09-12T09:27:39;26.20;57.70
66190;DHT22;52992;52.084;5.412;2022-09-12T09:30:17;26.50;55.40
66190;DHT22;52992;52.084;5.412;2022-09-12T09:32:54;26.90;52.00
66190;DHT22;52992;52.084;5.412;2022-09-12T09:35:45;27.50;49.30
66190;DHT22;52992;52.084;5.412;2022-09-12T09:38:24;28.10;48.80
66190;DHT22;52992;52.084;5.412;2022-09-12T09:43:40;28.80;47.40
66190;DHT22;52992;52.084;5.412;2022-09-12T09:46:07;28.70;47.70
66190;DHT22;52992;52.084;5.412;2022-09-12T09:48:36;28.40;49.20
66190;DHT22;52992;52.084;5.412;2022-09-12T09:51:05;28.20;50.00
66190;DHT22;52992;52.084;5.412;2022-09-12T09:54:00;27.90;49.70
66190;DHT22;52992;52.084;5.412;2022-09-12T09:56:32;27.80;50.70
66190;DHT22;52992;52.084;5.412;2022-09-12T10:01:46;27.80;52.90
66190;DHT22;52992;52.084;5.412;2022-09-12T10:04:25;28.00;53.10
66190;DHT22;52992;52.084;5.412;2022-09-12T10:06:55;28.10;52.70
66190;DHT22;52992;52.084;5.412;2022-09-12T10:09:42;28.20;52.30
66190;DHT22;52992;52.084;5.412;2022-09-12T10:12:34;28.40;51.40
66190;DHT22;52992;52.084;5.412;2022-09-12T10:15:03;28.60;50.70
66190;DHT22;52992;52.084;5.412;2022-09-12T10:17:43;28.80;50.50
66190;DHT22;52992;52.084;5.412;2022-09-12T10:20:29;28.80;50.50
66190;DHT22;52992;52.084;5.412;2022-09-12T10:23:03;28.90;50.00
66190;DHT22;52992;52.084;5.412;2022-09-12T10:25:51;28.90;48.80
66190;DHT22;52992;52.084;5.412;2022-09-12T10:28:23;28.90;48.80
66190;DHT22;52992;52.084;5.412;2022-09-12T10:30:53;29.00;49.70
66190;DHT22;52992;52.084;5.412;2022-09-12T10:33:23;29.10;48.70
66190;DHT22;52992;52.084;5.412;2022-09-12T10:35:52;29.20;48.10
66190;DHT22;52992;52.084;5.412;2022-09-12T10:38:31;29.20;46.70
66190;DHT22;52992;52.084;5.412;2022-09-12T10:41:02;29.30;47.40
66190;DHT22;52992;52.084;5.412;2022-09-12T10:48:47;29.90;46.10
66190;DHT22;52992;52.084;5.412;2022-09-12T10:51:27;30.40;45.70
66190;DHT22;52992;52.084;5.412;2022-09-12T10:53:57;30.60;44.30
66190;DHT22;52992;52.084;5.412;2022-09-12T10:56:31;30.80;43.50
66190;DHT22;52992;52.084;5.412;2022-09-12T10:59:32;30.80;42.20
66190;DHT22;52992;52.084;5.412;2022-09-12T11:02:23;31.10;43.10
66190;DHT22;52992;52.084;5.412;2022-09-12T11:05:13;31.50;42.10
66190;DHT22;52992;52.084;5.412;2022-09-12T11:08:10;31.90;40.70
66190;DHT22;52992;52.084;5.412;2022-09-12T11:10:45;32.20;40.10
66190;DHT22;52992;52.084;5.412;2022-09-12T11:27:37;31.50;41.30
66190;DHT22;52992;52.084;5.412;2022-09-12T11:30:10;31.30;43.60
66190;DHT22;52992;52.084;5.412;2022-09-12T11:35:30;31.50;41.50
66190;DHT22;52992;52.084;5.412;2022-09-12T11:48:56;32.80;39.30
66190;DHT22;52992;52.084;5.412;2022-09-12T11:51:39;32.80;38.10
66190;DHT22;52992;52.084;5.412;2022-09-12T11:54:20;32.70;38.10
66190;DHT22;52992;52.084;5.412;2022-09-12T11:56:54;32.40;39.40
66190;DHT22;52992;52.084;5.412;2022-09-12T12:02:27;32.20;39.00
66190;DHT22;52992;52.084;5.412;2022-09-12T12:07:44;31.90;38.30
66190;DHT22;52992;52.084;5.412;2022-09-12T12:13:05;31.90;40.40
66190;DHT22;52992;52.084;5.412;2022-09-12T12:18:37;32.00;39.60
66190;DHT22;52992;52.084;5.412;2022-09-12T12:29:09;32.30;37.70
66190;DHT22;52992;52.084;5.412;2022-09-12T12:34:28;32.60;36.80
66190;DHT22;52992;52.084;5.412;2022-09-12T12:36:56;32.80;36.30
66190;DHT22;52992;52.084;5.412;2022-09-12T12:42:01;33.40;34.80
66190;DHT22;52992;52.084;5.412;2022-09-12T12:47:42;33.70;34.90
66190;DHT22;52992;52.084;5.412;2022-09-12T12:52:54;34.00;34.10
66190;DHT22;52992;52.084;5.412;2022-09-12T12:55:27;34.10;33.70
66190;DHT22;52992;52.084;5.412;2022-09-12T12:58:01;34.20;32.60
66190;DHT22;52992;52.084;5.412;2022-09-12T13:00:37;34.10;33.70
66190;DHT22;52992;52.084;5.412;2022-09-12T13:05:53;34.00;32.40
66190;DHT22;52992;52.084;5.412;2022-09-12T13:08:31;33.70;33.20
66190;DHT22;52992;52.084;5.412;2022-09-12T13:11:01;33.80;32.30
66190;DHT22;52992;52.084;5.412;2022-09-12T13:13:47;33.80;32.40
66190;DHT22;52992;52.084;5.412;2022-09-12T13:16:31;33.90;32.10
66190;DHT22;52992;52.084;5.412;2022-09-12T13:19:06;34.10;32.20
66190;DHT22;52992;52.084;5.412;2022-09-12T13:22:04;34.20;32.30
66190;DHT22;52992;52.084;5.412;2022-09-12T13:24:31;34.30;32.50
66190;DHT22;52992;52.084;5.412;2022-09-12T13:26:58;34.40;31.80
66190;DHT22;52992;52.084;5.412;2022-09-12T13:29:26;34.10;30.80
66190;DHT22;52992;52.084;5.412;2022-09-12T13:31:58;33.80;32.00
66190;DHT22;52992;52.084;5.412;2022-09-12T13:34:34;33.80;32.90
66190;DHT22;52992;52.084;5.412;2022-09-12T13:42:31;33.40;33.20
66190;DHT22;52992;52.084;5.412;2022-09-12T13:45:10;33.00;33.20
66190;DHT22;52992;52.084;5.412;2022-09-12T13:47:41;32.60;33.30
66190;DHT22;52992;52.084;5.412;2022-09-12T13:50:16;32.20;33.40
66190;DHT22;52992;52.084;5.412;2022-09-12T13:52:51;31.90;35.50
66190;DHT22;52992;52.084;5.412;2022-09-12T13:55:35;31.70;36.20
66190;DHT22;52992;52.084;5.412;2022-09-12T13:58:05;31.40;36.30
66190;DHT22;52992;52.084;5.412;2022-09-12T14:00:32;31.30;36.50
66190;DHT22;52992;52.084;5.412;2022-09-12T14:03:01;31.10;36.20
66190;DHT22;52992;52.084;5.412;2022-09-12T14:05:56;31.00;37.20
66190;DHT22;52992;52.084;5.412;2022-09-12T14:08:23;31.00;37.30
66190;DHT22;52992;52.084;5.412;2022-09-12T14:10:50;30.90;37.00
66190;DHT22;52992;52.084;5.412;2022-09-12T14:13:20;30.90;37.60
66190;DHT22;52992;52.084;5.412;2022-09-12T14:15:50;30.80;37.10
66190;DHT22;52992;52.084;5.412;2022-09-12T14:18:26;30.70;37.40
66190;DHT22;52992;52.084;5.412;2022-09-12T14:20:54;30.50;37.90
66190;DHT22;52992;52.084;5.412;2022-09-12T14:23:32;30.40;38.90
66190;DHT22;52992;52.084;5.412;2022-09-12T14:26:01;30.20;38.50
66190;DHT22;52992;52.084;5.412;2022-09-12T14:28:29;30.20;39.20
66190;DHT22;52992;52.084;5.412;2022-09-12T14:30:58;30.10;38.60
66190;DHT22;52992;52.084;5.412;2022-09-12T14:33:26;29.90;38.30
66190;DHT22;52992;52.084;5.412;2022-09-12T14:36:11;29.70;38.80
66190;DHT22;52992;52.084;5.412;2022-09-12T14:38:45;29.50;38.90
66190;DHT22;52992;52.084;5.412;2022-09-12T14:41:22;29.50;37.70
66190;DHT22;52992;52.084;5.412;2022-09-12T14:43:53;29.40;38.30
66190;DHT22;52992;52.084;5.412;2022-09-12T14:46:28;29.30;39.50
66190;DHT22;52992;52.084;5.412;2022-09-12T14:49:08;29.20;39.30
66190;DHT22;52992;52.084;5.412;2022-09-12T14:51:38;29.10;40.20
66190;DHT22;52992;52.084;5.412;2022-09-12T14:56:54;29.00;40.30
66190;DHT22;52992;52.084;5.412;2022-09-12T14:59:40;29.00;39.80
66190;DHT22;52992;52.084;5.412;2022-09-12T15:04:48;28.80;38.40
66190;DHT22;52992;52.084;5.412;2022-09-12T15:07:36;28.70;39.10
66190;DHT22;52992;52.084;5.412;2022-09-12T15:10:08;28.50;39.10
66190;DHT22;52992;52.084;5.412;2022-09-12T15:12:40;28.50;39.40
66190;DHT22;52992;52.084;5.412;2022-09-12T15:15:14;28.40;39.70
66190;DHT22;52992;52.084;5.412;2022-09-12T15:17:41;28.40;39.70
66190;DHT22;52992;52.084;5.412;2022-09-12T15:20:08;28.50;40.50
66190;DHT22;52992;52.084;5.412;2022-09-12T15:22:36;28.50;40.90
66190;DHT22;52992;52.084;5.412;2022-09-12T15:25:04;28.50;40.40
66190;DHT22;52992;52.084;5.412;2022-09-12T15:27:32;28.50;40.40
66190;DHT22;52992;52.084;5.412;2022-09-12T15:29:58;28.50;41.20
66190;DHT22;52992;52.084;5.412;2022-09-12T15:32:28;28.50;41.00
66190;DHT22;52992;52.084;5.412;2022-09-12T15:34:55;28.50;40.90
66190;DHT22;52992;52.084;5.412;2022-09-12T15:37:23;28.40;40.00
66190;DHT22;52992;52.084;5.412;2022-09-12T15:39:50;28.40;39.70
66190;DHT22;52992;52.084;5.412;2022-09-12T15:42:24;28.40;39.40
66190;DHT22;52992;52.084;5.412;2022-09-12T15:44:53;28.40;39.40
66190;DHT22;52992;52.084;5.412;2022-09-12T15:47:19;28.30;39.60
66190;DHT22;52992;52.084;5.412;2022-09-12T15:49:47;28.30;39.30
66190;DHT22;52992;52.084;5.412;2022-09-12T15:52:15;28.20;39.00
66190;DHT22;52992;52.084;5.412;2022-09-12T15:54:42;28.10;39.30
66190;DHT22;52992;52.084;5.412;2022-09-12T15:57:09;28.10;39.20
66190;DHT22;52992;52.084;5.412;2022-09-12T15:59:36;28.10;38.90
66190;DHT22;52992;52.084;5.412;2022-09-12T16:02:02;28.00;39.30
66190;DHT22;52992;52.084;5.412;2022-09-12T16:04:30;28.00;39.50
66190;DHT22;52992;52.084;5.412;2022-09-12T16:06:57;28.00;39.20
66190;DHT22;52992;52.084;5.412;2022-09-12T16:09:24;28.00;39.30
66190;DHT22;52992;52.084;5.412;2022-09-12T16:11:50;27.90;39.00
66190;DHT22;52992;52.084;5.412;2022-09-12T16:14:18;27.90;38.80
66190;DHT22;52992;52.084;5.412;2022-09-12T16:16:51;28.00;39.30
66190;DHT22;52992;52.084;5.412;2022-09-12T16:19:22;28.00;39.30
66190;DHT22;52992;52.084;5.412;2022-09-12T16:21:49;27.90;38.80
66190;DHT22;52992;52.084;5.412;2022-09-12T16:24:16;27.90;38.70
66190;DHT22;52992;52.084;5.412;2022-09-12T16:26:42;27.90;38.60
66190;DHT22;52992;52.084;5.412;2022-09-12T16:29:11;27.80;38.70
66190;DHT22;52992;52.084;5.412;2022-09-12T16:31:38;27.80;39.10
66190;DHT22;52992;52.084;5.412;2022-09-12T16:34:05;27.80;39.30
66190;DHT22;52992;52.084;5.412;2022-09-12T16:36:33;27.80;39.20
66190;DHT22;52992;52.084;5.412;2022-09-12T16:38:59;27.80;39.10
66190;DHT22;52992;52.084;5.412;2022-09-12T16:41:26;27.80;39.30
66190;DHT22;52992;52.084;5.412;2022-09-12T16:43:53;27.70;40.10
66190;DHT22;52992;52.084;5.412;2022-09-12T16:46:24;27.70;40.00
66190;DHT22;52992;52.084;5.412;2022-09-12T16:48:52;27.70;39.60
66190;DHT22;52992;52.084;5.412;2022-09-12T16:51:25;27.70;39.20
66190;DHT22;52992;52.084;5.412;2022-09-12T16:53:53;27.60;39.20
66190;DHT22;52992;52.084;5.412;2022-09-12T16:56:21;27.50;39.70
66190;DHT22;52992;52.084;5.412;2022-09-12T16:58:48;27.50;39.90
66190;DHT22;52992;52.084;5.412;2022-09-12T17:01:17;27.50;40.10
66190;DHT22;52992;52.084;5.412;2022-09-12T17:03:45;27.50;40.50
66190;DHT22;52992;52.084;5.412;2022-09-12T17:06:14;27.40;41.00
66190;DHT22;52992;52.084;5.412;2022-09-12T17:08:44;27.40;41.30
66190;DHT22;52992;52.084;5.412;2022-09-12T17:11:14;27.30;40.80
66190;DHT22;52992;52.084;5.412;2022-09-12T17:13:46;27.30;40.50
66190;DHT22;52992;52.084;5.412;2022-09-12T17:16:29;27.30;40.70
66190;DHT22;52992;52.084;5.412;2022-09-12T17:18:56;27.30;40.40
66190;DHT22;52992;52.084;5.412;2022-09-12T17:21:23;27.20;41.60
66190;DHT22;52992;52.084;5.412;2022-09-12T17:23:50;27.20;41.10
66190;DHT22;52992;52.084;5.412;2022-09-12T17:26:17;27.20;41.30
66190;DHT22;52992;52.084;5.412;2022-09-12T17:28:44;27.20;41.00
66190;DHT22;52992;52.084;5.412;2022-09-12T17:31:12;27.20;40.50
66190;DHT22;52992;52.084;5.412;2022-09-12T17:33:40;27.10;42.00
66190;DHT22;52992;52.084;5.412;2022-09-12T17:36:12;27.10;42.80
66190;DHT22;52992;52.084;5.412;2022-09-12T17:38:41;27.10;43.30
66190;DHT22;52992;52.084;5.412;2022-09-12T17:41:10;27.10;42.70
66190;DHT22;52992;52.084;5.412;2022-09-12T17:43:46;27.10;42.60
66190;DHT22;52992;52.084;5.412;2022-09-12T17:46:19;27.00;43.70
66190;DHT22;52992;52.084;5.412;2022-09-12T17:48:56;27.00;42.90
66190;DHT22;52992;52.084;5.412;2022-09-12T17:51:24;27.00;43.50
66190;DHT22;52992;52.084;5.412;2022-09-12T17:54:12;26.90;43.90
66190;DHT22;52992;52.084;5.412;2022-09-12T17:56:42;26.80;44.40
66190;DHT22;52992;52.084;5.412;2022-09-12T17:59:13;26.50;45.60
66190;DHT22;52992;52.084;5.412;2022-09-12T18:01:40;26.50;46.20
66190;DHT22;52992;52.084;5.412;2022-09-12T18:04:26;26.50;46.50
66190;DHT22;52992;52.084;5.412;2022-09-12T18:06:53;26.40;46.90
66190;DHT22;52992;52.084;5.412;2022-09-12T18:09:22;26.40;47.20
66190;DHT22;52992;52.084;5.412;2022-09-12T18:11:51;26.30;47.30
66190;DHT22;52992;52.084;5.412;2022-09-12T18:14:18;26.20;47.70
66190;DHT22;52992;52.084;5.412;2022-09-12T18:16:46;26.20;47.90
66190;DHT22;52992;52.084;5.412;2022-09-12T18:19:13;26.10;48.20
66190;DHT22;52992;52.084;5.412;2022-09-12T18:21:40;26.00;48.50
66190;DHT22;52992;52.084;5.412;2022-09-12T18:24:09;25.90;48.20
66190;DHT22;52992;52.084;5.412;2022-09-12T18:26:36;25.80;48.20
66190;DHT22;52992;52.084;5.412;2022-09-12T18:29:03;25.80;48.30
66190;DHT22;52992;52.084;5.412;2022-09-12T18:31:30;25.70;48.90
66190;DHT22;52992;52.084;5.412;2022-09-12T18:33:58;25.60;49.30